KOLY/OLY METAR and TAF weather

Enter ICAO airport designator
Station Type Date Time Source
KOLY METAR 2022/06/26 07:55 UTC NOAA

KOLY 260755Z AUTO 00000KT 4SM TSRA SCT007 BKN075 OVC100 23/22 A3006 RMK AO2 LTG DSNT ALQS P0073 T02250220


Station Type Date Time Source
KOLY Decoded METAR 2022/06/26 07:55 UTC NOAA

Olney-Noble, Olney-Noble Airport, IL, United States (KOLY) 38-43-19N 088-10-35W
Jun 26, 2022 - 03:55 AM EDT / 2022.06.26 0755 UTC
Wind: Calm:0
Visibility: 4 mile(s):0
Sky conditions: overcast
Weather: rain with thunder; Lightning observed
Precipitation last hour: 0.73 inches
Temperature: 72.5 F (22.5 C)
Dew Point: 71.6 F (22.0 C)
Relative Humidity: 97%
Pressure (altimeter): 30.06 in. Hg (1017 hPa)
ob: KOLY 260755Z AUTO 00000KT 4SM TSRA SCT007 BKN075 OVC100 23/22 A3006 RMK AO2 LTG DSNT ALQS P0073 T02250220
cycle: 8

Station Type Date Time Source
KOLY TAF UTC NOAA

Error!

Example: see airport list